KSCR/SCR METAR and TAF weather

Enter ICAO airport designator
Station Type Date Time Source
KSCR METAR 2020/07/10 22:35 UTC NOAA

KSCR 102235Z AUTO 22003KT 10SM SCT041 BKN048 30/23 A2983 RMK AO2 T03040231


Station Type Date Time Source
KSCR Decoded METAR 2020/07/10 22:35 UTC NOAA

Station name not available
Jul 10, 2020 - 06:35 PM EDT / 2020.07.10 2235 UTC
Wind: from the SW (220 degrees) at 3 MPH (3 KT):0
Visibility: 10 mile(s):0
Sky conditions: mostly cloudy
Temperature: 86.7 F (30.4 C)
Heat index: 94.5 F (34.7 C):1
Dew Point: 73.6 F (23.1 C)
Relative Humidity: 65%
Pressure (altimeter): 29.83 in. Hg (1010 hPa)
ob: KSCR 102235Z AUTO 22003KT 10SM SCT041 BKN048 30/23 A2983 RMK AO2 T03040231
cycle: 22

Station Type Date Time Source
KSCR TAF UTC NOAA

Error!

Example: see airport list